createdAt,value
2023-02-24T00:02:15.035Z,30.13
2023-02-24T00:04:42.204Z,30.63
2023-02-24T00:07:10.876Z,30.17
2023-02-24T00:09:41.388Z,30.33
2023-02-24T00:12:10.723Z,30.03
2023-02-24T00:14:39.348Z,31.33
2023-02-24T00:17:08.260Z,32.40
2023-02-24T00:19:35.345Z,30.77
2023-02-24T00:22:05.305Z,31.00
2023-02-24T00:24:32.057Z,32.40
2023-02-24T00:27:00.089Z,32.47
2023-02-24T00:29:29.586Z,31.70
2023-02-24T00:32:01.158Z,30.33
2023-02-24T00:34:32.097Z,30.83
2023-02-24T00:36:58.971Z,31.70
2023-02-24T00:39:33.585Z,31.47
2023-02-24T00:42:06.674Z,30.53
2023-02-24T00:44:38.152Z,32.07
2023-02-24T00:47:06.530Z,31.37
2023-02-24T00:49:35.999Z,30.97
2023-02-24T00:52:06.688Z,31.40
2023-02-24T00:54:36.447Z,31.53
2023-02-24T00:57:03.340Z,31.43
2023-02-24T00:59:30.163Z,31.03
2023-02-24T01:01:56.966Z,31.67
2023-02-24T01:04:23.803Z,32.43
2023-02-24T01:06:52.341Z,31.83
2023-02-24T01:09:22.379Z,30.93
2023-02-24T01:12:08.338Z,30.23
2023-02-24T01:14:35.742Z,31.30
2023-02-24T01:17:03.253Z,31.53
2023-02-24T01:19:31.941Z,29.37
2023-02-24T01:21:59.343Z,31.17
2023-02-24T01:24:28.659Z,31.33
2023-02-24T01:26:58.049Z,30.57
2023-02-24T01:29:25.985Z,30.90
2023-02-24T01:31:58.523Z,31.77
2023-02-24T01:34:29.215Z,30.13
2023-02-24T01:36:56.017Z,29.87
2023-02-24T01:39:25.997Z,31.20
2023-02-24T01:41:55.601Z,30.63
2023-02-24T01:44:22.473Z,32.00
2023-02-24T01:46:51.240Z,30.03
2023-02-24T01:49:20.292Z,29.87
2023-02-24T01:51:54.827Z,31.27
2023-02-24T01:54:22.910Z,30.63
2023-02-24T01:56:50.059Z,29.97
2023-02-24T01:59:16.886Z,29.73
2023-02-24T02:01:43.817Z,31.17
2023-02-24T02:04:39.764Z,31.33
2023-02-24T02:07:11.500Z,31.13
2023-02-24T02:09:41.685Z,29.07
2023-02-24T02:12:09.536Z,31.20
2023-02-24T02:14:37.160Z,31.17
2023-02-24T02:17:19.881Z,30.23
2023-02-24T02:20:20.097Z,29.90
2023-02-24T02:23:06.701Z,30.87
2023-02-24T02:26:10.950Z,29.33
2023-02-24T02:28:59.015Z,31.63
2023-02-24T02:31:46.682Z,31.90
2023-02-24T02:34:31.464Z,31.13
2023-02-24T02:37:05.827Z,30.30
2023-02-24T02:39:49.405Z,30.83
2023-02-24T02:42:27.789Z,31.13
2023-02-24T02:45:07.807Z,32.43
2023-02-24T02:47:48.058Z,32.33
2023-02-24T02:50:28.062Z,32.20
2023-02-24T02:53:00.910Z,31.83
2023-02-24T02:55:48.348Z,31.50
2023-02-24T02:58:20.474Z,31.20
2023-02-24T03:01:01.783Z,31.70
2023-02-24T03:03:44.111Z,31.93
2023-02-24T03:06:24.732Z,31.27
2023-02-24T03:09:11.454Z,33.17
2023-02-24T03:11:42.594Z,31.43
2023-02-24T03:14:12.194Z,32.47
2023-02-24T03:16:43.294Z,31.60
2023-02-24T03:19:10.574Z,33.07
2023-02-24T03:21:39.854Z,32.07
2023-02-24T03:24:06.996Z,32.70
2023-02-24T03:26:53.997Z,32.83
2023-02-24T03:29:30.556Z,34.93
2023-02-24T03:32:09.615Z,34.37
2023-02-24T03:34:56.959Z,34.57
2023-02-24T03:37:28.033Z,34.73
2023-02-24T03:39:57.869Z,35.80
2023-02-24T03:42:33.870Z,35.47
2023-02-24T03:45:01.213Z,36.97
2023-02-24T03:47:30.351Z,37.10
2023-02-24T03:49:57.425Z,37.97
2023-02-24T03:52:47.263Z,37.83
2023-02-24T03:55:27.960Z,37.03
2023-02-24T03:58:06.916Z,37.40
2023-02-24T04:00:52.248Z,38.83
2023-02-24T04:03:57.690Z,38.47
2023-02-24T04:06:30.932Z,37.97
2023-02-24T04:09:59.311Z,38.83
2023-02-24T04:12:53.731Z,37.27
2023-02-24T04:15:20.590Z,38.50
2023-02-24T04:17:57.534Z,39.50
2023-02-24T04:20:30.893Z,39.67
2023-02-24T04:23:02.336Z,41.80
2023-02-24T04:25:29.112Z,42.40
2023-02-24T04:27:58.451Z,42.60
2023-02-24T04:30:26.959Z,42.27
2023-02-24T04:32:56.588Z,44.00
2023-02-24T04:35:23.614Z,42.77
2023-02-24T04:37:57.870Z,43.07
2023-02-24T04:40:24.677Z,43.33
2023-02-24T04:42:52.732Z,42.53
2023-02-24T04:45:21.659Z,44.80
2023-02-24T04:47:51.395Z,44.10
2023-02-24T04:50:28.445Z,44.60
2023-02-24T04:53:06.603Z,43.70
2023-02-24T04:55:42.365Z,46.50
2023-02-24T04:58:13.257Z,43.97
2023-02-24T05:00:41.698Z,46.80
2023-02-24T05:03:10.988Z,46.03
2023-02-24T05:05:37.968Z,46.40
2023-02-24T05:08:07.163Z,48.13
2023-02-24T05:10:39.488Z,47.70
2023-02-24T05:13:09.264Z,47.93
2023-02-24T05:15:39.512Z,48.53
2023-02-24T05:18:09.284Z,48.07
2023-02-24T05:20:55.628Z,49.47
2023-02-24T05:23:26.712Z,49.03
2023-02-24T05:25:55.034Z,50.70
2023-02-24T05:28:25.432Z,52.03
2023-02-24T05:30:53.990Z,54.13
2023-02-24T05:33:23.733Z,54.67
2023-02-24T05:35:56.351Z,52.57
2023-02-24T05:38:23.129Z,51.87
2023-02-24T05:40:49.921Z,53.00
2023-02-24T05:43:18.754Z,52.40
2023-02-24T05:45:46.280Z,52.93
2023-02-24T05:48:18.949Z,54.77
2023-02-24T05:50:56.440Z,52.77
2023-02-24T05:53:23.640Z,55.87
2023-02-24T05:55:52.638Z,55.00
2023-02-24T05:58:19.521Z,55.17
2023-02-24T06:00:46.561Z,54.97
2023-02-24T06:03:17.609Z,56.87
2023-02-24T06:05:54.914Z,56.50
2023-02-24T06:08:24.408Z,54.30
2023-02-24T06:10:51.656Z,56.70
2023-02-24T06:13:18.472Z,54.20
2023-02-24T06:15:50.507Z,54.13
2023-02-24T06:18:17.549Z,53.33
2023-02-24T06:20:51.293Z,53.77
2023-02-24T06:23:18.156Z,54.10
2023-02-24T06:25:47.439Z,54.40
2023-02-24T06:28:14.184Z,53.80
2023-02-24T06:30:43.411Z,55.13
2023-02-24T06:33:10.715Z,52.93
2023-02-24T06:35:38.913Z,51.70
2023-02-24T06:38:05.684Z,50.57
2023-02-24T06:40:37.834Z,48.60
2023-02-24T06:43:04.680Z,47.57
2023-02-24T06:45:33.917Z,50.30
2023-02-24T06:48:00.752Z,49.73
2023-02-24T06:50:28.849Z,48.20
2023-02-24T06:53:00.736Z,48.77
2023-02-24T06:55:28.493Z,49.63
2023-02-24T06:58:04.708Z,48.27
2023-02-24T07:00:39.074Z,46.67
2023-02-24T07:03:20.992Z,48.37
2023-02-24T07:05:54.288Z,45.73
2023-02-24T07:08:24.320Z,46.93
2023-02-24T07:10:56.013Z,46.90
2023-02-24T07:13:24.513Z,45.43
2023-02-24T07:15:51.740Z,44.60
2023-02-24T07:18:21.407Z,44.23
2023-02-24T07:20:48.273Z,44.67
2023-02-24T07:23:16.039Z,43.87
2023-02-24T07:25:43.483Z,42.80
2023-02-24T07:28:11.072Z,43.93
2023-02-24T07:30:43.759Z,44.37
2023-02-24T07:33:10.686Z,43.23
2023-02-24T07:35:41.507Z,44.03
2023-02-24T07:38:08.523Z,43.97
2023-02-24T07:40:36.433Z,42.43
2023-02-24T07:43:06.165Z,42.90
2023-02-24T07:45:32.983Z,40.80
2023-02-24T07:48:01.709Z,39.97
2023-02-24T07:50:32.773Z,40.87
2023-02-24T07:52:59.746Z,41.87
2023-02-24T07:55:31.400Z,41.33
2023-02-24T07:57:58.504Z,40.27
2023-02-24T08:00:28.360Z,40.43
2023-02-24T08:02:56.215Z,40.27
2023-02-24T08:05:24.577Z,42.20
2023-02-24T08:07:57.086Z,40.80
2023-02-24T08:10:26.761Z,40.10
2023-02-24T08:12:55.196Z,40.10
2023-02-24T08:15:34.145Z,39.03
2023-02-24T08:18:01.567Z,38.43
2023-02-24T08:20:52.217Z,37.10
2023-02-24T08:23:23.631Z,39.13
2023-02-24T08:25:53.785Z,38.07
2023-02-24T08:28:26.934Z,39.53
2023-02-24T08:30:53.863Z,39.17
2023-02-24T08:33:22.331Z,39.13
2023-02-24T08:35:53.084Z,37.03
2023-02-24T08:38:20.839Z,36.27
2023-02-24T08:40:54.466Z,34.70
2023-02-24T08:43:32.928Z,36.27
2023-02-24T08:46:03.655Z,35.03
2023-02-24T08:48:37.551Z,35.07
2023-02-24T08:51:06.096Z,35.27
2023-02-24T08:53:32.837Z,34.17
2023-02-24T08:56:00.835Z,34.03
2023-02-24T08:58:27.639Z,32.80
2023-02-24T09:00:59.365Z,30.37
2023-02-24T09:03:29.461Z,30.97
2023-02-24T09:05:59.689Z,30.83
2023-02-24T09:08:32.634Z,30.17
2023-02-24T09:11:07.861Z,29.70
2023-02-24T09:13:43.109Z,29.87
2023-02-24T09:16:16.493Z,29.60
2023-02-24T09:18:43.495Z,29.17
2023-02-24T09:21:36.924Z,28.43
2023-02-24T09:24:07.335Z,28.03
2023-02-24T09:26:43.480Z,28.43
2023-02-24T09:29:31.347Z,26.83
2023-02-24T09:32:07.620Z,26.70
2023-02-24T09:34:35.632Z,27.47
2023-02-24T09:37:03.410Z,27.60
2023-02-24T09:39:53.064Z,27.83
2023-02-24T09:42:20.978Z,26.30
2023-02-24T09:44:55.794Z,26.53
2023-02-24T09:47:39.682Z,28.47
2023-02-24T09:50:14.221Z,27.23
2023-02-24T09:52:41.124Z,28.30
2023-02-24T09:55:25.859Z,27.50
2023-02-24T09:58:19.009Z,27.20
2023-02-24T10:01:31.026Z,29.70
2023-02-24T10:04:20.108Z,28.73
2023-02-24T10:06:57.785Z,30.50
2023-02-24T10:09:43.335Z,29.53
2023-02-24T10:12:17.222Z,28.47
2023-02-24T10:15:17.614Z,28.43
2023-02-24T10:17:50.055Z,28.10
2023-02-24T10:20:40.967Z,28.73
2023-02-24T10:23:35.532Z,28.60
2023-02-24T10:26:07.891Z,28.37
2023-02-24T10:28:53.739Z,28.23
2023-02-24T10:31:57.824Z,27.57
2023-02-24T10:34:31.979Z,26.23
2023-02-24T10:37:07.737Z,25.50
2023-02-24T10:39:34.590Z,21.50
2023-02-24T10:42:19.664Z,21.67
2023-02-24T10:45:01.367Z,21.27
2023-02-24T10:47:31.697Z,20.63
2023-02-24T10:49:59.893Z,18.47
2023-02-24T10:52:58.393Z,16.63
2023-02-24T10:55:50.704Z,15.70
2023-02-24T10:58:44.962Z,13.53
2023-02-24T11:01:49.288Z,12.13
2023-02-24T11:04:33.179Z,11.40
2023-02-24T11:07:12.475Z,10.20
2023-02-24T11:09:45.632Z,10.50
2023-02-24T11:12:51.672Z,9.60
2023-02-24T11:15:39.970Z,10.33
2023-02-24T11:18:08.782Z,10.43
2023-02-24T11:20:56.246Z,10.00
2023-02-24T11:23:29.124Z,10.07
2023-02-24T11:26:04.676Z,11.47
2023-02-24T11:29:15.374Z,12.03
2023-02-24T11:31:56.029Z,12.43
2023-02-24T11:34:49.641Z,12.20
2023-02-24T11:37:27.120Z,13.27
2023-02-24T11:40:15.916Z,12.90
2023-02-24T11:42:48.971Z,12.67
2023-02-24T11:45:35.358Z,12.17
2023-02-24T11:48:05.291Z,13.77
2023-02-24T11:50:50.954Z,12.30
2023-02-24T11:53:33.143Z,13.77
2023-02-24T11:56:11.062Z,14.73
2023-02-24T11:59:03.970Z,13.93
2023-02-24T12:01:41.041Z,14.33
2023-02-24T12:04:18.763Z,14.57
2023-02-24T12:06:58.777Z,15.90
2023-02-24T12:09:30.605Z,16.13
2023-02-24T12:12:04.798Z,15.97
2023-02-24T12:14:54.041Z,15.10
2023-02-24T12:17:41.783Z,16.63
2023-02-24T12:20:45.373Z,15.33
2023-02-24T12:23:31.243Z,16.40
2023-02-24T12:26:09.108Z,15.27
2023-02-24T12:28:53.686Z,14.97
2023-02-24T12:31:37.576Z,13.83
2023-02-24T12:34:36.427Z,13.20
2023-02-24T12:37:40.495Z,13.57
2023-02-24T12:40:31.134Z,13.10
2023-02-24T12:43:02.289Z,13.37
2023-02-24T12:45:38.636Z,13.17
2023-02-24T12:48:23.647Z,13.33
2023-02-24T12:50:50.385Z,12.50
2023-02-24T12:53:41.472Z,13.73
2023-02-24T12:56:24.264Z,13.10
2023-02-24T12:58:56.767Z,12.60
2023-02-24T13:01:40.176Z,12.60
2023-02-24T13:04:28.146Z,12.60
2023-02-24T13:07:29.006Z,11.73
2023-02-24T13:10:19.077Z,12.20
2023-02-24T13:12:55.788Z,12.40
2023-02-24T13:15:27.427Z,12.27
2023-02-24T13:17:57.676Z,12.43
2023-02-24T13:20:37.298Z,12.77
2023-02-24T13:23:17.300Z,11.70
2023-02-24T13:25:52.858Z,11.33
2023-02-24T13:28:36.144Z,11.37
2023-02-24T13:31:07.714Z,11.77
2023-02-24T13:33:41.972Z,11.40
2023-02-24T13:36:08.932Z,12.07
2023-02-24T13:39:20.597Z,12.07
2023-02-24T13:41:49.559Z,13.47
2023-02-24T13:44:19.939Z,14.07
2023-02-24T13:46:46.719Z,13.60
2023-02-24T13:49:35.887Z,13.77
2023-02-24T13:52:15.751Z,12.90
2023-02-24T13:54:45.482Z,13.70
2023-02-24T13:57:12.270Z,13.17
2023-02-24T14:00:10.085Z,13.60
2023-02-24T14:02:41.508Z,14.03
2023-02-24T14:05:27.467Z,13.87
2023-02-24T14:07:54.584Z,14.73
2023-02-24T14:10:26.687Z,14.50
2023-02-24T14:13:07.328Z,14.40
2023-02-24T14:15:34.283Z,14.03
2023-02-24T14:18:05.375Z,13.57
2023-02-24T14:20:33.391Z,13.77
2023-02-24T14:23:01.351Z,15.03
2023-02-24T14:25:30.731Z,15.03
2023-02-24T14:28:02.217Z,14.50
2023-02-24T14:30:35.098Z,15.07
2023-02-24T14:33:02.143Z,14.60
2023-02-24T14:35:37.201Z,13.57
2023-02-24T14:38:03.983Z,15.33
2023-02-24T14:40:30.941Z,15.13
2023-02-24T14:43:00.384Z,14.80
2023-02-24T14:45:28.097Z,14.70
2023-02-24T14:47:55.873Z,14.90
2023-02-24T14:50:29.448Z,15.93
2023-02-24T14:53:01.541Z,15.57
2023-02-24T14:55:39.913Z,15.43
2023-02-24T14:58:14.288Z,15.80
2023-02-24T15:00:48.982Z,14.90
2023-02-24T15:03:40.798Z,15.27
2023-02-24T15:06:15.645Z,16.57
2023-02-24T15:08:49.394Z,14.93
2023-02-24T15:11:16.267Z,15.83
2023-02-24T15:13:57.255Z,16.27
2023-02-24T15:16:32.688Z,15.23
2023-02-24T15:19:03.018Z,16.03
2023-02-24T15:21:37.120Z,18.20
2023-02-24T15:24:18.781Z,17.90
2023-02-24T15:27:03.643Z,18.67
2023-02-24T15:29:33.189Z,18.67
2023-02-24T15:32:04.167Z,18.60
2023-02-24T15:34:34.999Z,18.43
2023-02-24T15:37:04.707Z,16.07
2023-02-24T15:39:33.931Z,16.40
2023-02-24T15:42:08.250Z,16.70
2023-02-24T15:44:35.561Z,15.57
2023-02-24T15:47:46.657Z,15.73
2023-02-24T15:50:14.200Z,14.97
2023-02-24T15:52:40.990Z,14.33
2023-02-24T15:55:11.018Z,14.60
2023-02-24T15:57:37.779Z,13.37
2023-02-24T16:00:13.874Z,13.70
2023-02-24T16:02:41.043Z,14.90
2023-02-24T16:05:14.220Z,14.47
2023-02-24T16:07:41.899Z,14.93
2023-02-24T16:10:17.331Z,14.70
2023-02-24T16:12:51.350Z,15.67
2023-02-24T16:15:43.050Z,16.63
2023-02-24T16:18:22.327Z,15.30
2023-02-24T16:20:58.560Z,14.20
2023-02-24T16:23:28.244Z,11.97
2023-02-24T16:26:00.720Z,12.07
2023-02-24T16:28:27.662Z,11.60
2023-02-24T16:30:54.630Z,11.13
2023-02-24T16:33:24.267Z,10.77
2023-02-24T16:35:53.501Z,11.27
2023-02-24T16:38:21.493Z,10.97
2023-02-24T16:40:51.602Z,10.60
2023-02-24T16:43:18.395Z,11.17
2023-02-24T16:45:45.489Z,11.10
2023-02-24T16:48:23.183Z,11.10
2023-02-24T16:50:52.572Z,11.17
2023-02-24T16:53:20.826Z,10.60
2023-02-24T16:55:47.588Z,10.63
2023-02-24T16:58:14.582Z,9.87
2023-02-24T17:00:44.097Z,10.30
2023-02-24T17:03:18.753Z,10.03
2023-02-24T17:05:47.923Z,10.43
2023-02-24T17:08:19.952Z,10.07
2023-02-24T17:10:48.957Z,10.07
2023-02-24T17:13:20.064Z,9.53
2023-02-24T17:15:47.025Z,10.10
2023-02-24T17:18:16.304Z,9.90
2023-02-24T17:20:45.337Z,10.17
2023-02-24T17:23:14.614Z,10.10
2023-02-24T17:25:43.581Z,9.90
2023-02-24T17:28:10.901Z,9.63
2023-02-24T17:30:38.528Z,9.70
2023-02-24T17:33:05.339Z,9.53
2023-02-24T17:35:32.212Z,8.77
2023-02-24T17:37:59.042Z,9.40
2023-02-24T17:40:28.053Z,9.27
2023-02-24T17:42:54.813Z,9.27
2023-02-24T17:45:21.661Z,9.37
2023-02-24T17:47:52.729Z,9.27
2023-02-24T17:50:22.089Z,9.43
2023-02-24T17:52:49.008Z,9.27
2023-02-24T17:55:15.825Z,9.70
2023-02-24T17:57:43.337Z,9.77
2023-02-24T18:00:13.295Z,10.33
2023-02-24T18:02:40.587Z,10.53
2023-02-24T18:05:08.085Z,10.60
2023-02-24T18:07:40.616Z,8.97
2023-02-24T18:10:07.953Z,9.43
2023-02-24T18:12:34.739Z,9.87
2023-02-24T18:15:08.545Z,9.27
2023-02-24T18:17:36.895Z,8.77
2023-02-24T18:20:04.792Z,9.57
2023-02-24T18:22:34.166Z,9.17
2023-02-24T18:25:01.192Z,10.00
2023-02-24T18:27:30.140Z,9.10
2023-02-24T18:29:59.139Z,9.40
2023-02-24T18:32:26.085Z,10.23
2023-02-24T18:34:55.521Z,9.77
2023-02-24T18:37:22.295Z,9.87
2023-02-24T18:39:49.053Z,9.37
2023-02-24T18:42:18.148Z,10.80
2023-02-24T18:44:47.056Z,11.10
2023-02-24T18:47:13.809Z,10.00
2023-02-24T18:49:42.864Z,10.30
2023-02-24T18:52:14.032Z,10.73
2023-02-24T18:54:42.991Z,10.10
2023-02-24T18:57:09.777Z,10.67
2023-02-24T18:59:36.535Z,10.70
2023-02-24T19:02:05.588Z,10.23
2023-02-24T19:04:32.650Z,10.93
2023-02-24T19:06:59.392Z,11.43
2023-02-24T19:09:26.142Z,12.10
2023-02-24T19:11:54.212Z,12.90
2023-02-24T19:14:25.741Z,12.40
2023-02-24T19:16:52.512Z,13.17
2023-02-24T19:19:22.802Z,12.50
2023-02-24T19:21:49.804Z,12.17
2023-02-24T19:24:19.562Z,12.33
2023-02-24T19:26:51.269Z,13.07
2023-02-24T19:29:21.321Z,13.17
2023-02-24T19:31:53.913Z,12.10
2023-02-24T19:34:23.390Z,13.23
2023-02-24T19:36:50.291Z,12.50
2023-02-24T19:39:19.490Z,14.97
2023-02-24T19:41:48.527Z,15.23
2023-02-24T19:44:16.325Z,15.50
2023-02-24T19:46:43.343Z,16.00
2023-02-24T19:49:10.182Z,16.50
2023-02-24T19:51:37.060Z,17.67
2023-02-24T19:54:10.712Z,20.00
2023-02-24T19:56:37.684Z,19.23
2023-02-24T19:59:08.347Z,19.13
2023-02-24T20:01:37.850Z,18.87
2023-02-24T20:04:05.027Z,20.03
2023-02-24T20:06:36.776Z,18.77
2023-02-24T20:09:15.448Z,16.90
2023-02-24T20:11:43.132Z,18.23
2023-02-24T20:14:10.534Z,16.60
2023-02-24T20:16:38.362Z,18.03
2023-02-24T20:19:06.073Z,16.93
2023-02-24T20:21:35.286Z,16.97
2023-02-24T20:24:03.500Z,17.70
2023-02-24T20:26:30.337Z,17.27
2023-02-24T20:28:57.142Z,18.97
2023-02-24T20:31:24.136Z,19.83
2023-02-24T20:33:51.161Z,18.57
2023-02-24T20:36:22.968Z,20.00
2023-02-24T20:38:50.184Z,19.00
2023-02-24T20:41:17.594Z,20.20
2023-02-24T20:43:44.637Z,20.67
2023-02-24T20:46:26.100Z,20.57
2023-02-24T20:48:57.233Z,19.43
2023-02-24T20:51:24.263Z,19.87
2023-02-24T20:53:57.806Z,19.53
2023-02-24T20:56:28.748Z,19.23
2023-02-24T20:59:02.968Z,19.30
2023-02-24T21:01:30.586Z,19.83
2023-02-24T21:03:57.572Z,21.27
2023-02-24T21:06:24.748Z,20.77
2023-02-24T21:08:54.404Z,20.57
2023-02-24T21:11:21.317Z,18.60
2023-02-24T21:13:49.075Z,19.00
2023-02-24T21:16:16.310Z,17.60
2023-02-24T21:18:44.370Z,18.57
2023-02-24T21:21:11.554Z,17.50
2023-02-24T21:23:43.150Z,15.83
2023-02-24T21:26:10.104Z,15.83
2023-02-24T21:28:37.037Z,15.80
2023-02-24T21:31:13.408Z,15.60
2023-02-24T21:33:40.386Z,16.13
2023-02-24T21:36:13.277Z,16.03
2023-02-24T21:38:41.399Z,16.20
2023-02-24T21:41:09.559Z,16.87
2023-02-24T21:43:37.865Z,16.90
2023-02-24T21:46:11.454Z,16.97
2023-02-24T21:48:38.853Z,17.43
2023-02-24T21:51:07.104Z,17.67
2023-02-24T21:53:39.107Z,18.90
2023-02-24T21:56:11.040Z,18.60
2023-02-24T21:58:38.950Z,18.20
2023-02-24T22:01:13.429Z,18.33
2023-02-24T22:03:42.626Z,18.03
2023-02-24T22:06:10.780Z,19.30
2023-02-24T22:08:43.067Z,17.13
2023-02-24T22:11:24.094Z,17.53
2023-02-24T22:13:50.918Z,18.17
2023-02-24T22:16:22.154Z,19.40
2023-02-24T22:18:49.326Z,20.60
2023-02-24T22:21:20.072Z,22.33
2023-02-24T22:23:47.712Z,21.70
2023-02-24T22:26:14.894Z,22.63
2023-02-24T22:28:42.090Z,23.20
2023-02-24T22:31:09.904Z,23.83
2023-02-24T22:33:37.634Z,24.00
2023-02-24T22:36:05.733Z,24.47
2023-02-24T22:38:35.651Z,24.10
2023-02-24T22:41:04.622Z,23.77
2023-02-24T22:43:31.450Z,24.00
2023-02-24T22:45:58.971Z,23.20
2023-02-24T22:48:26.719Z,22.67
2023-02-24T22:50:57.266Z,23.87
2023-02-24T22:53:29.067Z,25.17
2023-02-24T22:55:56.883Z,23.67
2023-02-24T22:58:26.214Z,23.03
2023-02-24T23:00:55.814Z,24.00
2023-02-24T23:03:27.180Z,21.87
2023-02-24T23:06:00.456Z,21.23
2023-02-24T23:08:31.495Z,20.77
2023-02-24T23:11:19.920Z,20.97
2023-02-24T23:13:50.760Z,20.03
2023-02-24T23:16:22.498Z,20.30
2023-02-24T23:18:50.946Z,19.80
2023-02-24T23:21:22.281Z,19.27
2023-02-24T23:23:53.523Z,20.80
2023-02-24T23:26:20.909Z,20.33
2023-02-24T23:28:50.360Z,19.73
2023-02-24T23:31:22.475Z,19.63
2023-02-24T23:33:51.805Z,20.17
2023-02-24T23:36:18.735Z,20.17
2023-02-24T23:38:45.661Z,19.37
2023-02-24T23:41:17.635Z,19.33
2023-02-24T23:43:51.368Z,18.90
2023-02-24T23:46:18.231Z,18.47
2023-02-24T23:48:45.836Z,17.93
2023-02-24T23:51:13.325Z,18.80
2023-02-24T23:53:41.386Z,18.23
2023-02-24T23:56:09.447Z,18.60
2023-02-24T23:58:37.407Z,18.50
